Schnellsuche:     vonnach     am:               Ankunft heute   Abflug heute   
Wetterdaten des Sylter Flughafens. Alle Angaben sind ohne Gewähr.



Datum: 2018-08-16 16:30 UTC
   
Windrichtung: 220°
Windgeschwindigkeit: 9 - 19 Kt.
QNH: 1013 hPa
Temperatur: 20 °C
Taupunkt: 16 °C
rel. Luftfeuchte: 76 %

METAR EDXW 161620Z 22015KT 9999 FEW032 20/16 Q1013 RMK ATIS QUE=

Wolkenhöhen in den letzten 48 Stunden:






 

Im Jettempo nach Sylt!



Rhein-Neckar-Air

Mannheim
Die Rhein-Neckar-Air fliegt vom 28. April bis zum 26. Oktober 2018 nach Mannheim. Zur Seite der Rhein-Neckar-Air: www.flyRNA.de

Lufthansa

München, Frankfurt/Main und Zürich
Die Lufthansa fliegt vom 17. August bis zum 26. Oktober 2019 nach München, vom 18. August bis zum 12. Oktober 2019 nach Frankfurt/Main und vom 07. Juli bis zum 26. Oktober 2019 nach Zürich. Zur Seite der Lufthansa: www.lufthansa.de

Syltair

Hamburg
Die Syltair fliegt vom 29. März bis zum 04. Oktober 2018 nach Hamburg. Zur Seite der Syltair: www.syltair.de